createdAt,value
2022-12-27T00:00:53.321Z,4.60
2022-12-27T00:03:20.179Z,4.50
2022-12-27T00:05:47.452Z,4.60
2022-12-27T00:08:14.474Z,4.70
2022-12-27T00:10:41.450Z,4.80
2022-12-27T00:13:08.213Z,4.80
2022-12-27T00:15:35.239Z,4.70
2022-12-27T00:18:02.244Z,4.60
2022-12-27T00:20:28.988Z,4.60
2022-12-27T00:22:55.639Z,4.60
2022-12-27T00:25:22.396Z,4.60
2022-12-27T00:27:49.091Z,4.60
2022-12-27T00:30:15.821Z,4.60
2022-12-27T00:32:42.539Z,4.70
2022-12-27T00:35:09.542Z,4.70
2022-12-27T00:37:36.272Z,4.70
2022-12-27T00:40:03.474Z,4.80
2022-12-27T00:42:30.165Z,4.80
2022-12-27T00:44:56.808Z,4.80
2022-12-27T00:47:23.523Z,4.90
2022-12-27T00:49:50.228Z,4.90
2022-12-27T00:52:16.910Z,4.90
2022-12-27T00:54:43.648Z,4.90
2022-12-27T00:57:10.370Z,4.90
2022-12-27T00:59:37.296Z,5.00
2022-12-27T01:02:04.179Z,4.90
2022-12-27T01:04:30.970Z,4.90
2022-12-27T01:06:57.638Z,4.90
2022-12-27T01:09:24.327Z,4.80
2022-12-27T01:11:51.033Z,4.70
2022-12-27T01:14:17.730Z,4.70
2022-12-27T01:16:44.474Z,4.60
2022-12-27T01:19:11.247Z,4.60
2022-12-27T01:21:38.036Z,4.60
2022-12-27T01:24:05.837Z,4.50
2022-12-27T01:26:32.485Z,4.40
2022-12-27T01:28:59.163Z,4.40
2022-12-27T01:31:28.040Z,4.40
2022-12-27T01:33:58.873Z,4.30
2022-12-27T01:36:26.320Z,4.30
2022-12-27T01:38:53.180Z,4.20
2022-12-27T01:41:46.869Z,4.30
2022-12-27T01:44:36.370Z,4.30
2022-12-27T01:47:03.094Z,4.20
2022-12-27T01:49:29.765Z,4.20
2022-12-27T01:51:56.681Z,4.10
2022-12-27T01:54:23.549Z,4.10
2022-12-27T01:56:50.221Z,4.10
2022-12-27T01:59:16.915Z,4.10
2022-12-27T02:01:44.275Z,4.10
2022-12-27T02:04:13.860Z,4.00
2022-12-27T02:06:40.545Z,4.00
2022-12-27T02:09:20.764Z,4.00
2022-12-27T02:11:52.114Z,4.10
2022-12-27T02:14:39.248Z,4.00
2022-12-27T02:17:25.570Z,4.00
2022-12-27T02:20:15.329Z,3.90
2022-12-27T02:23:55.289Z,4.00
2022-12-27T02:26:48.967Z,3.90
2022-12-27T02:29:18.385Z,4.00
2022-12-27T02:31:57.542Z,4.00
2022-12-27T02:34:52.310Z,4.00
2022-12-27T02:37:18.996Z,4.10
2022-12-27T02:39:46.664Z,4.10
2022-12-27T02:42:33.454Z,4.10
2022-12-27T02:45:19.070Z,4.00
2022-12-27T02:48:04.381Z,3.90
2022-12-27T02:51:08.380Z,3.80
2022-12-27T02:54:12.304Z,3.80
2022-12-27T02:57:03.520Z,3.70
2022-12-27T03:00:08.005Z,3.80
2022-12-27T03:03:16.482Z,3.80
2022-12-27T03:06:35.415Z,3.70
2022-12-27T03:09:39.320Z,3.70
2022-12-27T03:12:32.214Z,3.70
2022-12-27T03:15:21.976Z,3.70
2022-12-27T03:17:52.912Z,3.70
2022-12-27T03:20:38.125Z,3.70
2022-12-27T03:23:23.393Z,3.60
2022-12-27T03:25:50.514Z,3.70
2022-12-27T03:28:42.368Z,3.70
2022-12-27T03:31:43.398Z,3.70
2022-12-27T03:34:30.003Z,3.70
2022-12-27T03:37:15.590Z,3.70
2022-12-27T03:39:46.963Z,3.70
2022-12-27T03:42:38.692Z,3.80
2022-12-27T03:45:05.891Z,3.80
2022-12-27T03:47:43.519Z,3.90
2022-12-27T03:50:29.688Z,3.80
2022-12-27T03:52:58.822Z,3.80
2022-12-27T03:55:30.065Z,3.70
2022-12-27T03:57:59.956Z,3.70
2022-12-27T04:00:26.659Z,3.60
2022-12-27T04:02:53.448Z,3.60
2022-12-27T04:05:20.256Z,3.70
2022-12-27T04:08:05.323Z,3.70
2022-12-27T04:10:50.504Z,3.70
2022-12-27T04:13:35.570Z,3.70
2022-12-27T04:16:20.770Z,3.70
2022-12-27T04:19:06.110Z,3.60
2022-12-27T04:21:51.178Z,3.60
2022-12-27T04:24:36.291Z,3.60
2022-12-27T04:27:21.328Z,3.70
2022-12-27T04:30:06.536Z,3.70
2022-12-27T04:32:51.680Z,3.60
2022-12-27T04:35:18.372Z,3.60
2022-12-27T04:37:45.053Z,3.50
2022-12-27T04:40:30.768Z,3.60
2022-12-27T04:43:15.958Z,3.60
2022-12-27T04:46:01.339Z,3.50
2022-12-27T04:48:46.409Z,3.60
2022-12-27T04:51:32.176Z,3.50
2022-12-27T04:54:17.684Z,3.50
2022-12-27T04:56:44.351Z,3.50
2022-12-27T04:59:29.732Z,3.50
2022-12-27T05:02:05.337Z,3.50
2022-12-27T05:04:32.946Z,3.60
2022-12-27T05:07:19.653Z,3.60
2022-12-27T05:10:04.868Z,3.60
2022-12-27T05:12:50.072Z,3.70
2022-12-27T05:15:16.838Z,3.70
2022-12-27T05:17:43.527Z,3.80
2022-12-27T05:20:10.889Z,3.70
2022-12-27T05:22:56.021Z,3.80
2022-12-27T05:25:34.533Z,3.80
2022-12-27T05:28:02.013Z,3.80
2022-12-27T05:30:28.754Z,3.90
2022-12-27T05:32:56.042Z,3.90
2022-12-27T05:35:22.824Z,3.90
2022-12-27T05:37:54.736Z,3.90
2022-12-27T05:40:22.396Z,4.00
2022-12-27T05:42:49.085Z,4.00
2022-12-27T05:45:15.887Z,4.00
2022-12-27T05:47:42.664Z,4.00
2022-12-27T05:50:09.750Z,4.00
2022-12-27T05:52:41.017Z,3.90
2022-12-27T05:55:08.648Z,3.90
2022-12-27T05:57:35.384Z,3.90
2022-12-27T06:00:02.704Z,3.90
2022-12-27T06:02:39.746Z,3.80
2022-12-27T06:05:06.755Z,3.80
2022-12-27T06:07:35.127Z,3.80
2022-12-27T06:10:01.991Z,3.80
2022-12-27T06:12:28.705Z,3.80
2022-12-27T06:14:55.387Z,3.70
2022-12-27T06:17:22.065Z,3.70
2022-12-27T06:19:53.796Z,3.60
2022-12-27T06:22:23.470Z,3.60
2022-12-27T06:24:50.324Z,3.60
2022-12-27T06:27:17.086Z,3.60
2022-12-27T06:29:44.379Z,3.50
2022-12-27T06:32:11.253Z,3.50
2022-12-27T06:34:38.067Z,3.50
2022-12-27T06:37:04.880Z,3.50
2022-12-27T06:39:31.570Z,3.50
2022-12-27T06:41:58.258Z,3.50
2022-12-27T06:44:25.679Z,3.60
2022-12-27T06:46:52.360Z,3.60
2022-12-27T06:49:19.205Z,3.60
2022-12-27T06:51:45.959Z,3.60
2022-12-27T06:54:12.683Z,3.60
2022-12-27T06:56:39.382Z,3.60
2022-12-27T06:59:06.311Z,3.60
2022-12-27T07:01:33.070Z,3.70
2022-12-27T07:04:00.088Z,3.70
2022-12-27T07:06:28.107Z,3.80
2022-12-27T07:08:55.041Z,3.80
2022-12-27T07:11:21.968Z,3.80
2022-12-27T07:13:50.122Z,3.80
2022-12-27T07:16:18.491Z,3.70
2022-12-27T07:18:45.256Z,3.80
2022-12-27T07:21:13.709Z,3.70
2022-12-27T07:23:40.482Z,3.70
2022-12-27T07:26:14.937Z,3.60
2022-12-27T07:28:41.710Z,3.60
2022-12-27T07:31:09.575Z,3.60
2022-12-27T07:33:37.013Z,3.60
2022-12-27T07:36:04.011Z,3.60
2022-12-27T07:38:30.718Z,3.50
2022-12-27T07:41:01.355Z,3.50
2022-12-27T07:43:33.147Z,3.50
2022-12-27T07:46:04.659Z,3.40
2022-12-27T07:48:31.396Z,3.50
2022-12-27T07:50:58.062Z,3.40
2022-12-27T07:53:24.759Z,3.40
2022-12-27T07:55:53.619Z,3.40
2022-12-27T07:58:20.643Z,3.40
2022-12-27T08:00:48.149Z,3.40
2022-12-27T08:03:14.865Z,3.40
2022-12-27T08:05:46.337Z,3.40
2022-12-27T08:08:14.880Z,3.40
2022-12-27T08:10:41.615Z,3.40
2022-12-27T08:13:08.342Z,3.40
2022-12-27T08:15:35.732Z,3.40
2022-12-27T08:18:02.485Z,3.40
2022-12-27T08:20:29.336Z,3.40
2022-12-27T08:22:56.029Z,3.30
2022-12-27T08:25:22.759Z,3.30
2022-12-27T08:27:49.527Z,3.30
2022-12-27T08:30:16.281Z,3.30
2022-12-27T08:32:43.085Z,3.30
2022-12-27T08:35:41.757Z,3.30
2022-12-27T08:37:56.660Z,3.30
2022-12-27T08:40:23.767Z,3.40
2022-12-27T08:42:50.546Z,3.40
2022-12-27T08:45:17.288Z,3.40
2022-12-27T08:47:44.116Z,3.40
2022-12-27T08:50:10.971Z,3.50
2022-12-27T08:52:37.713Z,3.50
2022-12-27T08:55:04.744Z,3.50
2022-12-27T08:57:31.575Z,3.50
2022-12-27T08:59:58.331Z,3.60
2022-12-27T09:02:26.156Z,3.70
2022-12-27T09:04:52.925Z,3.70
2022-12-27T09:07:19.630Z,3.80
2022-12-27T09:09:46.341Z,3.80
2022-12-27T09:12:13.122Z,3.80
2022-12-27T09:14:39.888Z,3.80
2022-12-27T09:17:08.971Z,3.90
2022-12-27T09:19:36.208Z,4.00
2022-12-27T09:22:02.920Z,4.00
2022-12-27T09:24:29.644Z,4.10
2022-12-27T09:26:56.802Z,4.10
2022-12-27T09:29:23.459Z,4.20
2022-12-27T09:31:50.123Z,4.20
2022-12-27T09:34:16.822Z,4.30
2022-12-27T09:36:43.561Z,4.50
2022-12-27T09:39:12.123Z,4.50
2022-12-27T09:45:06.300Z,4.80
2022-12-27T09:47:39.746Z,4.70
2022-12-27T09:50:10.290Z,4.60
2022-12-27T09:52:40.595Z,4.60
2022-12-27T09:55:20.849Z,4.70
2022-12-27T09:57:47.643Z,4.60
2022-12-27T10:00:35.018Z,4.70
2022-12-27T10:03:05.854Z,4.70
2022-12-27T10:05:36.990Z,4.70
2022-12-27T10:08:43.706Z,4.70
2022-12-27T10:11:36.047Z,4.70
2022-12-27T10:14:22.332Z,4.80
2022-12-27T10:20:26.607Z,4.90
2022-12-27T10:23:06.035Z,4.90
2022-12-27T10:25:33.330Z,5.00
2022-12-27T10:28:04.223Z,5.00
2022-12-27T10:30:31.109Z,5.00
2022-12-27T10:33:00.539Z,5.00
2022-12-27T10:35:28.832Z,5.10
2022-12-27T10:37:56.465Z,5.10
2022-12-27T10:40:43.154Z,5.10
2022-12-27T10:43:23.461Z,5.20
2022-12-27T10:45:50.160Z,5.30
2022-12-27T10:48:22.557Z,5.30
2022-12-27T10:51:17.827Z,5.40
2022-12-27T10:54:00.544Z,5.30
2022-12-27T10:56:33.768Z,5.40
2022-12-27T10:59:22.577Z,5.40
2022-12-27T11:02:16.639Z,5.50
2022-12-27T11:04:58.048Z,5.50
2022-12-27T11:07:37.680Z,5.50
2022-12-27T11:10:24.048Z,5.50
2022-12-27T11:13:04.790Z,5.70
2022-12-27T11:15:36.023Z,5.70
2022-12-27T11:18:09.864Z,5.70
2022-12-27T11:20:44.744Z,5.70
2022-12-27T11:23:16.413Z,5.70
2022-12-27T11:25:59.849Z,5.60
2022-12-27T11:28:53.224Z,5.70
2022-12-27T11:31:49.753Z,5.70
2022-12-27T11:34:42.633Z,5.70
2022-12-27T11:37:14.418Z,5.80
2022-12-27T11:39:52.472Z,5.80
2022-12-27T11:42:32.457Z,5.80
2022-12-27T11:45:18.200Z,6.00
2022-12-27T11:47:57.175Z,5.80
2022-12-27T11:50:27.245Z,5.90
2022-12-27T11:53:10.767Z,6.00
2022-12-27T11:55:52.451Z,6.00
2022-12-27T11:58:41.184Z,6.00
2022-12-27T12:01:29.599Z,6.00
2022-12-27T12:03:56.269Z,6.00
2022-12-27T12:06:44.320Z,5.90
2022-12-27T12:09:49.780Z,5.80
2022-12-27T12:13:05.885Z,5.80
2022-12-27T12:15:47.234Z,5.80
2022-12-27T12:18:32.666Z,5.90
2022-12-27T12:21:11.200Z,5.90
2022-12-27T12:24:16.604Z,6.00
2022-12-27T12:26:55.979Z,6.10
2022-12-27T12:29:53.396Z,6.10
2022-12-27T12:32:32.009Z,6.10
2022-12-27T12:35:32.892Z,6.10
2022-12-27T12:38:18.289Z,6.20
2022-12-27T12:41:03.785Z,6.30
2022-12-27T12:43:57.184Z,6.40
2022-12-27T12:46:38.789Z,6.50
2022-12-27T12:49:32.274Z,6.60
2022-12-27T12:52:18.805Z,6.60
2022-12-27T12:54:58.731Z,6.50
2022-12-27T12:57:34.239Z,6.60
2022-12-27T13:00:20.925Z,6.40
2022-12-27T13:03:15.621Z,6.20
2022-12-27T13:06:11.507Z,6.10
2022-12-27T13:08:44.670Z,6.10
2022-12-27T13:11:29.838Z,6.20
2022-12-27T13:14:06.564Z,6.50
2022-12-27T13:17:04.268Z,6.80
2022-12-27T13:19:46.162Z,7.00
2022-12-27T13:22:20.914Z,7.50
2022-12-27T13:25:19.325Z,7.60
2022-12-27T13:28:05.024Z,7.50
2022-12-27T13:30:41.095Z,7.30
2022-12-27T13:33:22.889Z,7.40
2022-12-27T13:36:14.319Z,7.50
2022-12-27T13:38:53.435Z,7.90
2022-12-27T13:41:31.465Z,7.70
2022-12-27T13:44:07.052Z,7.40
2022-12-27T13:46:58.396Z,7.10
2022-12-27T13:49:49.570Z,7.00
2022-12-27T13:52:36.176Z,6.90
2022-12-27T13:55:15.300Z,6.80
2022-12-27T13:58:16.987Z,6.70
2022-12-27T14:01:13.976Z,6.60
2022-12-27T14:04:13.576Z,6.60
2022-12-27T14:06:52.761Z,6.60
2022-12-27T14:09:30.949Z,6.60
2022-12-27T14:12:43.141Z,6.40
2022-12-27T14:15:14.317Z,6.30
2022-12-27T14:18:05.841Z,6.20
2022-12-27T14:20:53.947Z,6.20
2022-12-27T14:23:45.635Z,6.20
2022-12-27T14:26:15.198Z,6.20
2022-12-27T14:29:13.710Z,6.10
2022-12-27T14:32:09.691Z,6.10
2022-12-27T14:35:01.269Z,6.10
2022-12-27T14:37:56.215Z,6.00
2022-12-27T14:40:46.624Z,6.00
2022-12-27T14:43:42.931Z,5.90
2022-12-27T14:46:52.085Z,5.90
2022-12-27T14:49:50.093Z,5.80
2022-12-27T14:52:44.993Z,5.80
2022-12-27T14:55:46.076Z,5.70
2022-12-27T14:58:24.870Z,5.70
2022-12-27T15:01:10.672Z,5.80
2022-12-27T15:03:54.494Z,5.80
2022-12-27T15:06:39.334Z,5.70
2022-12-27T15:09:46.743Z,5.80
2022-12-27T15:12:19.221Z,5.80
2022-12-27T15:15:06.219Z,5.70
2022-12-27T15:18:21.099Z,5.70
2022-12-27T15:21:18.657Z,5.70
2022-12-27T15:23:52.565Z,5.70
2022-12-27T15:26:32.437Z,5.60
2022-12-27T15:29:00.158Z,5.60
2022-12-27T15:31:43.659Z,5.60
2022-12-27T15:34:32.014Z,5.60
2022-12-27T15:36:58.918Z,5.60
2022-12-27T15:39:35.521Z,5.60
2022-12-27T15:42:37.954Z,5.60
2022-12-27T15:45:32.578Z,5.50
2022-12-27T15:48:24.287Z,5.60
2022-12-27T15:50:58.563Z,5.50
2022-12-27T15:54:04.429Z,5.50
2022-12-27T15:56:42.074Z,5.40
2022-12-27T15:59:32.287Z,5.50
2022-12-27T16:02:17.386Z,5.40
2022-12-27T16:04:57.392Z,5.50
2022-12-27T16:07:46.769Z,5.40
2022-12-27T16:10:30.001Z,5.40
2022-12-27T16:13:36.038Z,5.30
2022-12-27T16:16:09.340Z,5.40
2022-12-27T16:18:46.778Z,5.40
2022-12-27T16:21:21.922Z,5.40
2022-12-27T16:23:58.394Z,5.40
2022-12-27T16:26:26.609Z,5.30
2022-12-27T16:29:11.420Z,5.30
2022-12-27T16:31:43.627Z,5.30
2022-12-27T16:34:25.268Z,5.30
2022-12-27T16:36:52.690Z,5.20
2022-12-27T16:39:39.950Z,5.10
2022-12-27T16:42:08.163Z,5.00
2022-12-27T16:44:48.369Z,5.00
2022-12-27T16:47:46.414Z,4.90
2022-12-27T16:50:45.753Z,4.80
2022-12-27T16:53:30.891Z,4.80
2022-12-27T16:56:12.011Z,4.80
2022-12-27T16:58:38.921Z,4.80
2022-12-27T17:01:18.853Z,4.70
2022-12-27T17:03:51.299Z,4.70
2022-12-27T17:06:34.574Z,4.80
2022-12-27T17:09:12.117Z,4.70
2022-12-27T17:11:48.347Z,4.70
2022-12-27T17:14:29.758Z,4.70
2022-12-27T17:17:02.832Z,4.70
2022-12-27T17:19:36.509Z,4.60
2022-12-27T17:22:04.787Z,4.60
2022-12-27T17:24:31.549Z,4.50
2022-12-27T17:27:19.208Z,4.50
2022-12-27T17:29:58.308Z,4.50
2022-12-27T17:32:50.406Z,4.50
2022-12-27T17:35:29.081Z,4.50
2022-12-27T17:38:17.194Z,4.40
2022-12-27T17:41:04.504Z,4.40
2022-12-27T17:44:16.272Z,4.40
2022-12-27T17:46:57.521Z,4.40
2022-12-27T17:49:30.871Z,4.40
2022-12-27T17:52:16.566Z,4.30
2022-12-27T17:55:01.761Z,4.30
2022-12-27T17:57:46.779Z,4.30
2022-12-27T18:00:29.064Z,4.20
2022-12-27T18:02:56.100Z,4.20
2022-12-27T18:05:30.524Z,4.10
2022-12-27T18:08:30.157Z,4.10
2022-12-27T18:10:57.609Z,4.20
2022-12-27T18:13:25.807Z,4.20
2022-12-27T18:15:52.758Z,4.20
2022-12-27T18:18:32.902Z,4.20
2022-12-27T18:21:01.670Z,4.10
2022-12-27T18:23:28.388Z,4.10
2022-12-27T18:25:57.301Z,4.10
2022-12-27T18:28:33.012Z,4.00
2022-12-27T18:31:25.551Z,4.00
2022-12-27T18:34:00.310Z,4.00
2022-12-27T18:36:36.522Z,4.00
2022-12-27T18:39:11.187Z,3.90
2022-12-27T18:41:49.186Z,3.90
2022-12-27T18:44:27.514Z,3.90
2022-12-27T18:46:56.725Z,4.00
2022-12-27T18:49:25.701Z,4.00
2022-12-27T18:51:55.235Z,4.10
2022-12-27T18:54:28.685Z,4.10
2022-12-27T18:57:03.911Z,4.10
2022-12-27T18:59:36.254Z,4.10
2022-12-27T19:02:24.127Z,4.20
2022-12-27T19:05:19.539Z,4.20
2022-12-27T19:08:00.023Z,4.10
2022-12-27T19:10:30.465Z,4.00
2022-12-27T19:12:57.534Z,4.00
2022-12-27T19:15:40.907Z,4.00
2022-12-27T19:18:23.989Z,4.00
2022-12-27T19:21:02.364Z,4.00
2022-12-27T19:23:37.683Z,4.10
2022-12-27T19:26:25.064Z,4.00
2022-12-27T19:29:03.973Z,4.00
2022-12-27T19:31:31.403Z,4.00
2022-12-27T19:34:04.447Z,4.00
2022-12-27T19:36:34.125Z,4.10
2022-12-27T19:39:01.070Z,4.00
2022-12-27T19:41:28.031Z,4.00
2022-12-27T19:43:55.666Z,4.10
2022-12-27T19:46:30.455Z,4.10
2022-12-27T19:51:45.071Z,4.10
2022-12-27T19:54:17.083Z,4.10
2022-12-27T19:56:44.008Z,4.20
2022-12-27T19:59:18.449Z,4.10
2022-12-27T20:01:47.903Z,4.10
2022-12-27T20:04:15.139Z,4.10
2022-12-27T20:06:42.017Z,4.10
2022-12-27T20:09:16.711Z,4.20
2022-12-27T20:11:43.564Z,4.10
2022-12-27T20:14:10.266Z,4.20
2022-12-27T20:16:37.037Z,4.20
2022-12-27T20:19:03.765Z,4.20
2022-12-27T20:21:30.457Z,4.20
2022-12-27T20:23:57.253Z,4.30
2022-12-27T20:26:25.065Z,4.20
2022-12-27T20:28:51.864Z,4.30
2022-12-27T20:31:20.373Z,4.30
2022-12-27T20:33:53.674Z,4.30
2022-12-27T20:36:21.175Z,4.20
2022-12-27T20:38:47.852Z,4.30
2022-12-27T20:41:17.492Z,4.40
2022-12-27T20:43:44.688Z,4.40
2022-12-27T20:46:13.934Z,4.40
2022-12-27T20:48:41.806Z,4.50
2022-12-27T20:51:09.687Z,4.50
2022-12-27T20:53:36.457Z,4.40
2022-12-27T20:56:03.846Z,4.40
2022-12-27T20:58:31.513Z,4.50
2022-12-27T21:00:58.429Z,4.50
2022-12-27T21:03:25.825Z,4.60
2022-12-27T21:05:54.092Z,4.60
2022-12-27T21:08:21.011Z,4.70
2022-12-27T21:10:48.065Z,4.70
2022-12-27T21:13:15.247Z,4.80
2022-12-27T21:15:46.522Z,4.70
2022-12-27T21:18:14.456Z,4.80
2022-12-27T21:20:45.882Z,4.80
2022-12-27T21:23:14.694Z,4.80
2022-12-27T21:25:43.425Z,4.70
2022-12-27T21:28:15.659Z,4.80
2022-12-27T21:30:43.987Z,4.80
2022-12-27T21:33:12.256Z,4.70
2022-12-27T21:35:42.883Z,4.60
2022-12-27T21:38:10.546Z,4.60
2022-12-27T21:40:39.365Z,4.60
2022-12-27T21:43:08.309Z,4.60
2022-12-27T21:45:36.505Z,4.60
2022-12-27T21:48:04.149Z,4.60
2022-12-27T21:50:36.970Z,4.60
2022-12-27T21:53:04.250Z,4.70
2022-12-27T21:55:31.005Z,4.60
2022-12-27T21:57:58.052Z,4.70
2022-12-27T22:00:26.152Z,4.70
2022-12-27T22:02:54.090Z,4.70
2022-12-27T22:05:23.471Z,4.80
2022-12-27T22:07:53.803Z,4.70
2022-12-27T22:10:23.142Z,4.70
2022-12-27T22:13:14.528Z,4.80
2022-12-27T22:15:43.946Z,4.90
2022-12-27T22:18:16.186Z,4.90
2022-12-27T22:20:47.177Z,4.90
2022-12-27T22:23:15.028Z,5.00
2022-12-27T22:25:42.807Z,5.00
2022-12-27T22:28:09.712Z,5.10
2022-12-27T22:30:40.116Z,5.10
2022-12-27T22:33:07.340Z,5.10
2022-12-27T22:35:34.031Z,5.10
2022-12-27T22:38:00.697Z,5.10
2022-12-27T22:40:40.791Z,5.10
2022-12-27T22:43:13.461Z,5.00
2022-12-27T22:45:45.539Z,5.00
2022-12-27T22:48:15.577Z,5.00
2022-12-27T22:50:42.249Z,5.10
2022-12-27T22:53:08.922Z,5.10
2022-12-27T22:55:39.518Z,5.10
2022-12-27T22:58:06.186Z,5.10
2022-12-27T23:00:32.847Z,5.20
2022-12-27T23:02:59.538Z,5.10
2022-12-27T23:05:26.218Z,5.20
2022-12-27T23:08:05.262Z,5.10
2022-12-27T23:10:33.759Z,5.10
2022-12-27T23:13:00.523Z,5.10
2022-12-27T23:15:27.234Z,5.10
2022-12-27T23:17:54.017Z,5.00
2022-12-27T23:20:20.734Z,5.00
2022-12-27T23:22:47.779Z,5.00
2022-12-27T23:25:14.551Z,5.00
2022-12-27T23:27:41.239Z,5.10
2022-12-27T23:30:08.432Z,5.00
2022-12-27T23:32:35.119Z,5.00
2022-12-27T23:35:01.795Z,5.10
2022-12-27T23:37:28.502Z,5.10
2022-12-27T23:39:55.157Z,5.10
2022-12-27T23:42:21.831Z,5.10
2022-12-27T23:44:48.515Z,5.10
2022-12-27T23:47:15.228Z,5.10
2022-12-27T23:49:41.943Z,4.90
2022-12-27T23:52:08.632Z,4.70
2022-12-27T23:54:35.302Z,4.50
2022-12-27T23:57:20.403Z,4.40
2022-12-27T23:59:49.679Z,4.40
